sensor_id;sensor_type;location;lat;lon;timestamp;temperature;humidity
69895;DHT22;57172;52.034;5.090;2023-07-28T00:02:01;19.20;99.90
69895;DHT22;57172;52.034;5.090;2023-07-28T00:04:28;19.20;99.90
69895;DHT22;57172;52.034;5.090;2023-07-28T00:06:55;19.20;99.90
69895;DHT22;57172;52.034;5.090;2023-07-28T00:09:22;19.20;99.90
69895;DHT22;57172;52.034;5.090;2023-07-28T00:11:52;19.20;99.90
69895;DHT22;57172;52.034;5.090;2023-07-28T00:14:19;19.20;99.90
69895;DHT22;57172;52.034;5.090;2023-07-28T00:16:46;19.10;99.90
69895;DHT22;57172;52.034;5.090;2023-07-28T00:19:12;19.10;99.90
69895;DHT22;57172;52.034;5.090;2023-07-28T00:21:39;19.10;99.90
69895;DHT22;57172;52.034;5.090;2023-07-28T00:24:06;19.20;99.90
69895;DHT22;57172;52.034;5.090;2023-07-28T00:26:33;19.10;99.90
69895;DHT22;57172;52.034;5.090;2023-07-28T00:29:00;19.10;99.90
69895;DHT22;57172;52.034;5.090;2023-07-28T00:31:28;19.10;99.90
69895;DHT22;57172;52.034;5.090;2023-07-28T00:33:55;19.10;99.90
69895;DHT22;57172;52.034;5.090;2023-07-28T00:36:23;19.20;99.90
69895;DHT22;57172;52.034;5.090;2023-07-28T00:38:50;19.20;99.90
69895;DHT22;57172;52.034;5.090;2023-07-28T00:41:16;19.20;99.90
69895;DHT22;57172;52.034;5.090;2023-07-28T00:43:43;19.20;99.90
69895;DHT22;57172;52.034;5.090;2023-07-28T00:46:12;19.20;99.90
69895;DHT22;57172;52.034;5.090;2023-07-28T00:48:40;19.20;99.90
69895;DHT22;57172;52.034;5.090;2023-07-28T00:51:07;19.20;99.90
69895;DHT22;57172;52.034;5.090;2023-07-28T00:53:35;19.20;99.90
69895;DHT22;57172;52.034;5.090;2023-07-28T00:56:04;19.20;99.90
69895;DHT22;57172;52.034;5.090;2023-07-28T00:58:32;19.20;99.90
69895;DHT22;57172;52.034;5.090;2023-07-28T01:00:59;19.20;99.90
69895;DHT22;57172;52.034;5.090;2023-07-28T01:03:26;19.20;99.90
69895;DHT22;57172;52.034;5.090;2023-07-28T01:09:03;19.20;99.90
69895;DHT22;57172;52.034;5.090;2023-07-28T01:11:32;19.20;99.90
69895;DHT22;57172;52.034;5.090;2023-07-28T01:14:01;19.20;99.90
69895;DHT22;57172;52.034;5.090;2023-07-28T01:16:28;19.20;99.90
69895;DHT22;57172;52.034;5.090;2023-07-28T01:18:55;19.20;99.90
69895;DHT22;57172;52.034;5.090;2023-07-28T01:21:26;19.20;99.90
69895;DHT22;57172;52.034;5.090;2023-07-28T01:24:04;19.20;99.90
69895;DHT22;57172;52.034;5.090;2023-07-28T01:26:35;19.20;99.90
69895;DHT22;57172;52.034;5.090;2023-07-28T01:29:04;19.20;99.90
69895;DHT22;57172;52.034;5.090;2023-07-28T01:31:31;19.20;99.90
69895;DHT22;57172;52.034;5.090;2023-07-28T01:33:58;19.20;99.90
69895;DHT22;57172;52.034;5.090;2023-07-28T01:36:25;19.20;99.90
69895;DHT22;57172;52.034;5.090;2023-07-28T01:38:52;19.20;99.90
69895;DHT22;57172;52.034;5.090;2023-07-28T01:41:20;19.20;99.90
69895;DHT22;57172;52.034;5.090;2023-07-28T01:43:47;19.20;99.90
69895;DHT22;57172;52.034;5.090;2023-07-28T01:46:14;19.30;99.90
69895;DHT22;57172;52.034;5.090;2023-07-28T01:48:41;19.30;99.90
69895;DHT22;57172;52.034;5.090;2023-07-28T01:51:08;19.30;99.90
69895;DHT22;57172;52.034;5.090;2023-07-28T01:53:35;19.30;99.90
69895;DHT22;57172;52.034;5.090;2023-07-28T01:56:02;19.30;99.90
69895;DHT22;57172;52.034;5.090;2023-07-28T01:58:29;19.20;99.90
69895;DHT22;57172;52.034;5.090;2023-07-28T02:00:56;19.20;99.90
69895;DHT22;57172;52.034;5.090;2023-07-28T02:03:23;19.20;99.90
69895;DHT22;57172;52.034;5.090;2023-07-28T02:05:50;19.30;99.90
69895;DHT22;57172;52.034;5.090;2023-07-28T02:08:17;19.20;99.90
69895;DHT22;57172;52.034;5.090;2023-07-28T02:10:44;19.30;99.90
69895;DHT22;57172;52.034;5.090;2023-07-28T02:13:11;19.20;99.90
69895;DHT22;57172;52.034;5.090;2023-07-28T02:15:38;19.20;99.90
69895;DHT22;57172;52.034;5.090;2023-07-28T02:18:07;19.30;99.90
69895;DHT22;57172;52.034;5.090;2023-07-28T02:20:34;19.30;99.90
69895;DHT22;57172;52.034;5.090;2023-07-28T02:23:02;19.30;99.90
69895;DHT22;57172;52.034;5.090;2023-07-28T02:25:29;19.30;99.90
69895;DHT22;57172;52.034;5.090;2023-07-28T02:27:57;19.30;99.90
69895;DHT22;57172;52.034;5.090;2023-07-28T02:30:24;19.30;99.90
69895;DHT22;57172;52.034;5.090;2023-07-28T02:32:51;19.30;99.90
69895;DHT22;57172;52.034;5.090;2023-07-28T02:35:18;19.30;99.90
69895;DHT22;57172;52.034;5.090;2023-07-28T02:37:47;19.30;99.90
69895;DHT22;57172;52.034;5.090;2023-07-28T02:40:14;19.30;99.90
69895;DHT22;57172;52.034;5.090;2023-07-28T02:42:41;19.30;99.90
69895;DHT22;57172;52.034;5.090;2023-07-28T02:45:09;19.30;99.90
69895;DHT22;57172;52.034;5.090;2023-07-28T02:47:37;19.30;99.90
69895;DHT22;57172;52.034;5.090;2023-07-28T02:50:04;19.30;99.90
69895;DHT22;57172;52.034;5.090;2023-07-28T02:52:32;19.30;99.90
69895;DHT22;57172;52.034;5.090;2023-07-28T02:54:59;19.30;99.90
69895;DHT22;57172;52.034;5.090;2023-07-28T02:57:27;19.30;99.90
69895;DHT22;57172;52.034;5.090;2023-07-28T02:59:54;19.30;99.90
69895;DHT22;57172;52.034;5.090;2023-07-28T03:02:21;19.30;99.90
69895;DHT22;57172;52.034;5.090;2023-07-28T03:04:49;19.30;99.90
69895;DHT22;57172;52.034;5.090;2023-07-28T03:07:16;19.30;99.90
69895;DHT22;57172;52.034;5.090;2023-07-28T03:09:47;19.30;99.90
69895;DHT22;57172;52.034;5.090;2023-07-28T03:12:14;19.30;99.90
69895;DHT22;57172;52.034;5.090;2023-07-28T03:14:41;19.30;99.90
69895;DHT22;57172;52.034;5.090;2023-07-28T03:17:08;19.30;99.90
69895;DHT22;57172;52.034;5.090;2023-07-28T03:19:35;19.30;99.90
69895;DHT22;57172;52.034;5.090;2023-07-28T03:22:02;19.30;99.90
69895;DHT22;57172;52.034;5.090;2023-07-28T03:24:29;19.30;99.90
69895;DHT22;57172;52.034;5.090;2023-07-28T03:26:56;19.30;99.90
69895;DHT22;57172;52.034;5.090;2023-07-28T03:29:23;19.30;99.90
69895;DHT22;57172;52.034;5.090;2023-07-28T03:31:50;19.30;99.90
69895;DHT22;57172;52.034;5.090;2023-07-28T03:34:18;19.30;99.90
69895;DHT22;57172;52.034;5.090;2023-07-28T03:36:45;19.30;99.90
69895;DHT22;57172;52.034;5.090;2023-07-28T03:39:14;19.30;99.90
69895;DHT22;57172;52.034;5.090;2023-07-28T03:41:43;19.30;99.90
69895;DHT22;57172;52.034;5.090;2023-07-28T03:44:10;19.30;99.90
69895;DHT22;57172;52.034;5.090;2023-07-28T03:46:37;19.30;99.90
69895;DHT22;57172;52.034;5.090;2023-07-28T03:49:04;19.30;99.90
69895;DHT22;57172;52.034;5.090;2023-07-28T03:51:32;19.30;99.90
69895;DHT22;57172;52.034;5.090;2023-07-28T03:53:59;19.20;99.90
69895;DHT22;57172;52.034;5.090;2023-07-28T03:56:25;19.20;99.90
69895;DHT22;57172;52.034;5.090;2023-07-28T03:58:55;19.20;99.90
69895;DHT22;57172;52.034;5.090;2023-07-28T04:01:22;19.20;99.90
69895;DHT22;57172;52.034;5.090;2023-07-28T04:03:49;19.20;99.90
69895;DHT22;57172;52.034;5.090;2023-07-28T04:06:16;19.20;99.90
69895;DHT22;57172;52.034;5.090;2023-07-28T04:08:43;19.20;99.90
69895;DHT22;57172;52.034;5.090;2023-07-28T04:11:10;19.20;99.90
69895;DHT22;57172;52.034;5.090;2023-07-28T04:13:37;19.20;99.90
69895;DHT22;57172;52.034;5.090;2023-07-28T04:16:04;19.20;99.90
69895;DHT22;57172;52.034;5.090;2023-07-28T04:18:31;19.20;99.90
69895;DHT22;57172;52.034;5.090;2023-07-28T04:20:58;19.20;99.90
69895;DHT22;57172;52.034;5.090;2023-07-28T04:23:25;19.20;99.90
69895;DHT22;57172;52.034;5.090;2023-07-28T04:25:52;19.20;99.90
69895;DHT22;57172;52.034;5.090;2023-07-28T04:28:20;19.20;99.90
69895;DHT22;57172;52.034;5.090;2023-07-28T04:30:51;19.20;99.90
69895;DHT22;57172;52.034;5.090;2023-07-28T04:33:48;19.20;99.90
69895;DHT22;57172;52.034;5.090;2023-07-28T04:36:14;19.20;99.90
69895;DHT22;57172;52.034;5.090;2023-07-28T04:38:41;19.20;99.90
69895;DHT22;57172;52.034;5.090;2023-07-28T04:41:08;19.30;99.90
69895;DHT22;57172;52.034;5.090;2023-07-28T04:43:47;19.30;99.90
69895;DHT22;57172;52.034;5.090;2023-07-28T04:46:14;19.30;99.90
69895;DHT22;57172;52.034;5.090;2023-07-28T04:48:43;19.30;99.90
69895;DHT22;57172;52.034;5.090;2023-07-28T04:51:30;19.30;99.90
69895;DHT22;57172;52.034;5.090;2023-07-28T04:54:29;19.30;99.90
69895;DHT22;57172;52.034;5.090;2023-07-28T04:56:56;19.30;99.90
69895;DHT22;57172;52.034;5.090;2023-07-28T04:59:29;19.30;99.90
69895;DHT22;57172;52.034;5.090;2023-07-28T05:01:57;19.40;99.90
69895;DHT22;57172;52.034;5.090;2023-07-28T05:04:24;19.30;99.90
69895;DHT22;57172;52.034;5.090;2023-07-28T05:06:51;19.30;99.90
69895;DHT22;57172;52.034;5.090;2023-07-28T05:09:18;19.40;99.90
69895;DHT22;57172;52.034;5.090;2023-07-28T05:11:45;19.30;99.90
69895;DHT22;57172;52.034;5.090;2023-07-28T05:14:15;19.40;99.90
69895;DHT22;57172;52.034;5.090;2023-07-28T05:16:42;19.40;99.90
69895;DHT22;57172;52.034;5.090;2023-07-28T05:19:09;19.40;99.90
69895;DHT22;57172;52.034;5.090;2023-07-28T05:21:53;19.40;99.90
69895;DHT22;57172;52.034;5.090;2023-07-28T05:24:27;19.50;99.90
69895;DHT22;57172;52.034;5.090;2023-07-28T05:26:54;19.50;99.90
69895;DHT22;57172;52.034;5.090;2023-07-28T05:29:21;19.50;99.90
69895;DHT22;57172;52.034;5.090;2023-07-28T05:31:48;19.50;99.90
69895;DHT22;57172;52.034;5.090;2023-07-28T05:34:28;19.50;99.90
69895;DHT22;57172;52.034;5.090;2023-07-28T05:36:56;19.50;99.90
69895;DHT22;57172;52.034;5.090;2023-07-28T05:39:26;19.40;99.90
69895;DHT22;57172;52.034;5.090;2023-07-28T05:41:53;19.40;99.90
69895;DHT22;57172;52.034;5.090;2023-07-28T05:44:21;19.40;99.90
69895;DHT22;57172;52.034;5.090;2023-07-28T05:46:47;19.40;99.90
69895;DHT22;57172;52.034;5.090;2023-07-28T05:49:16;19.40;99.90
69895;DHT22;57172;52.034;5.090;2023-07-28T05:51:43;19.40;99.90
69895;DHT22;57172;52.034;5.090;2023-07-28T05:54:12;19.40;99.90
69895;DHT22;57172;52.034;5.090;2023-07-28T05:56:42;19.40;99.90
69895;DHT22;57172;52.034;5.090;2023-07-28T05:59:09;19.40;99.90
69895;DHT22;57172;52.034;5.090;2023-07-28T06:01:36;19.40;99.90
69895;DHT22;57172;52.034;5.090;2023-07-28T06:04:23;19.40;99.90
69895;DHT22;57172;52.034;5.090;2023-07-28T06:06:54;19.40;99.90
69895;DHT22;57172;52.034;5.090;2023-07-28T06:09:21;19.50;99.90
69895;DHT22;57172;52.034;5.090;2023-07-28T06:11:49;19.50;99.90
69895;DHT22;57172;52.034;5.090;2023-07-28T06:14:16;19.60;99.90
69895;DHT22;57172;52.034;5.090;2023-07-28T06:16:42;19.60;99.90
69895;DHT22;57172;52.034;5.090;2023-07-28T06:19:10;19.60;99.90
69895;DHT22;57172;52.034;5.090;2023-07-28T06:21:38;19.60;99.90
69895;DHT22;57172;52.034;5.090;2023-07-28T06:24:05;19.60;99.90
69895;DHT22;57172;52.034;5.090;2023-07-28T06:26:32;19.70;99.90
69895;DHT22;57172;52.034;5.090;2023-07-28T06:28:59;19.70;99.90
69895;DHT22;57172;52.034;5.090;2023-07-28T06:31:26;19.70;99.90
69895;DHT22;57172;52.034;5.090;2023-07-28T06:33:54;19.70;99.90
69895;DHT22;57172;52.034;5.090;2023-07-28T06:36:20;19.70;99.90
69895;DHT22;57172;52.034;5.090;2023-07-28T06:38:48;19.80;99.90
69895;DHT22;57172;52.034;5.090;2023-07-28T06:41:16;19.80;99.90
69895;DHT22;57172;52.034;5.090;2023-07-28T06:43:45;19.80;99.90
69895;DHT22;57172;52.034;5.090;2023-07-28T06:46:12;19.80;99.90
69895;DHT22;57172;52.034;5.090;2023-07-28T06:48:39;19.80;99.90
69895;DHT22;57172;52.034;5.090;2023-07-28T06:51:06;19.90;99.90
69895;DHT22;57172;52.034;5.090;2023-07-28T06:53:33;19.90;99.90
69895;DHT22;57172;52.034;5.090;2023-07-28T06:56:01;19.90;99.90
69895;DHT22;57172;52.034;5.090;2023-07-28T06:58:28;19.90;99.90
69895;DHT22;57172;52.034;5.090;2023-07-28T07:00:55;20.00;99.90
69895;DHT22;57172;52.034;5.090;2023-07-28T07:03:23;20.00;99.90
69895;DHT22;57172;52.034;5.090;2023-07-28T07:05:50;20.00;99.90
69895;DHT22;57172;52.034;5.090;2023-07-28T07:08:17;20.10;99.90
69895;DHT22;57172;52.034;5.090;2023-07-28T07:10:52;20.10;99.90
69895;DHT22;57172;52.034;5.090;2023-07-28T07:13:19;20.20;99.90
69895;DHT22;57172;52.034;5.090;2023-07-28T07:15:46;20.20;99.90
69895;DHT22;57172;52.034;5.090;2023-07-28T07:18:13;20.30;99.90
69895;DHT22;57172;52.034;5.090;2023-07-28T07:20:40;20.40;99.90
69895;DHT22;57172;52.034;5.090;2023-07-28T07:23:07;20.40;99.90
69895;DHT22;57172;52.034;5.090;2023-07-28T07:25:34;20.50;99.90
69895;DHT22;57172;52.034;5.090;2023-07-28T07:28:03;20.60;99.90
69895;DHT22;57172;52.034;5.090;2023-07-28T07:30:33;20.70;99.90
69895;DHT22;57172;52.034;5.090;2023-07-28T07:33:00;20.60;99.90
69895;DHT22;57172;52.034;5.090;2023-07-28T07:35:27;20.70;99.90
69895;DHT22;57172;52.034;5.090;2023-07-28T07:37:54;20.80;99.90
69895;DHT22;57172;52.034;5.090;2023-07-28T07:40:21;20.90;99.90
69895;DHT22;57172;52.034;5.090;2023-07-28T07:42:53;20.90;99.90
69895;DHT22;57172;52.034;5.090;2023-07-28T07:45:20;21.00;99.90
69895;DHT22;57172;52.034;5.090;2023-07-28T07:47:47;21.10;99.90
69895;DHT22;57172;52.034;5.090;2023-07-28T07:50:15;21.20;99.90
69895;DHT22;57172;52.034;5.090;2023-07-28T07:52:42;21.30;99.90
69895;DHT22;57172;52.034;5.090;2023-07-28T07:55:10;21.40;99.90
69895;DHT22;57172;52.034;5.090;2023-07-28T07:57:39;21.50;99.90
69895;DHT22;57172;52.034;5.090;2023-07-28T08:00:06;21.60;99.90
69895;DHT22;57172;52.034;5.090;2023-07-28T08:02:38;21.60;99.90
69895;DHT22;57172;52.034;5.090;2023-07-28T08:05:06;21.70;99.90
69895;DHT22;57172;52.034;5.090;2023-07-28T08:07:33;21.80;99.90
69895;DHT22;57172;52.034;5.090;2023-07-28T08:09:59;21.90;99.90
69895;DHT22;57172;52.034;5.090;2023-07-28T08:12:27;21.80;99.90
69895;DHT22;57172;52.034;5.090;2023-07-28T08:14:54;21.70;98.20
69895;DHT22;57172;52.034;5.090;2023-07-28T08:17:23;21.60;98.30
69895;DHT22;57172;52.034;5.090;2023-07-28T08:19:50;21.50;99.30
69895;DHT22;57172;52.034;5.090;2023-07-28T08:22:17;21.50;99.80
69895;DHT22;57172;52.034;5.090;2023-07-28T08:24:44;21.50;99.40
69895;DHT22;57172;52.034;5.090;2023-07-28T08:27:11;21.50;99.90
69895;DHT22;57172;52.034;5.090;2023-07-28T08:29:37;21.50;99.90
69895;DHT22;57172;52.034;5.090;2023-07-28T08:32:05;21.60;99.90
69895;DHT22;57172;52.034;5.090;2023-07-28T08:34:32;21.60;99.90
69895;DHT22;57172;52.034;5.090;2023-07-28T08:36:58;21.70;99.90
69895;DHT22;57172;52.034;5.090;2023-07-28T08:39:25;21.80;99.90
69895;DHT22;57172;52.034;5.090;2023-07-28T08:42:00;22.00;99.90
69895;DHT22;57172;52.034;5.090;2023-07-28T08:44:32;22.20;99.90
69895;DHT22;57172;52.034;5.090;2023-07-28T08:47:04;22.50;99.90
69895;DHT22;57172;52.034;5.090;2023-07-28T08:49:31;23.00;99.90
69895;DHT22;57172;52.034;5.090;2023-07-28T08:52:00;23.70;99.90
69895;DHT22;57172;52.034;5.090;2023-07-28T08:54:27;24.20;99.90
69895;DHT22;57172;52.034;5.090;2023-07-28T08:56:55;24.60;99.90
69895;DHT22;57172;52.034;5.090;2023-07-28T08:59:25;25.10;99.90
69895;DHT22;57172;52.034;5.090;2023-07-28T09:01:54;25.40;99.90
69895;DHT22;57172;52.034;5.090;2023-07-28T09:04:23;25.70;99.30
69895;DHT22;57172;52.034;5.090;2023-07-28T09:06:50;25.70;96.50
69895;DHT22;57172;52.034;5.090;2023-07-28T09:09:21;25.80;93.60
69895;DHT22;57172;52.034;5.090;2023-07-28T09:11:53;25.70;94.30
69895;DHT22;57172;52.034;5.090;2023-07-28T09:14:22;25.80;91.90
69895;DHT22;57172;52.034;5.090;2023-07-28T09:16:52;25.70;91.60
69895;DHT22;57172;52.034;5.090;2023-07-28T09:19:20;25.60;92.50
69895;DHT22;57172;52.034;5.090;2023-07-28T09:21:59;25.50;89.50
69895;DHT22;57172;52.034;5.090;2023-07-28T09:24:33;25.50;88.10
69895;DHT22;57172;52.034;5.090;2023-07-28T09:27:01;25.40;89.20
69895;DHT22;57172;52.034;5.090;2023-07-28T09:29:28;25.40;92.90
69895;DHT22;57172;52.034;5.090;2023-07-28T09:32:06;25.50;92.50
69895;DHT22;57172;52.034;5.090;2023-07-28T09:34:33;25.90;94.80
69895;DHT22;57172;52.034;5.090;2023-07-28T09:37:00;26.30;95.10
69895;DHT22;57172;52.034;5.090;2023-07-28T09:39:28;26.50;91.60
69895;DHT22;57172;52.034;5.090;2023-07-28T09:41:55;26.70;90.40
69895;DHT22;57172;52.034;5.090;2023-07-28T09:44:25;26.90;91.20
69895;DHT22;57172;52.034;5.090;2023-07-28T09:46:56;27.20;87.10
69895;DHT22;57172;52.034;5.090;2023-07-28T09:49:37;27.20;85.00
69895;DHT22;57172;52.034;5.090;2023-07-28T09:52:08;27.00;84.10
69895;DHT22;57172;52.034;5.090;2023-07-28T09:54:39;26.80;84.90
69895;DHT22;57172;52.034;5.090;2023-07-28T09:57:14;26.90;83.40
69895;DHT22;57172;52.034;5.090;2023-07-28T09:59:45;27.00;83.40
69895;DHT22;57172;52.034;5.090;2023-07-28T10:02:13;27.20;84.50
69895;DHT22;57172;52.034;5.090;2023-07-28T10:04:41;26.90;80.70
69895;DHT22;57172;52.034;5.090;2023-07-28T10:07:09;26.50;81.30
69895;DHT22;57172;52.034;5.090;2023-07-28T10:09:37;26.10;83.60
69895;DHT22;57172;52.034;5.090;2023-07-28T10:12:05;26.00;84.20
69895;DHT22;57172;52.034;5.090;2023-07-28T10:14:35;25.90;84.30
69895;DHT22;57172;52.034;5.090;2023-07-28T10:17:05;25.80;82.20
69895;DHT22;57172;52.034;5.090;2023-07-28T10:19:36;25.50;83.30
69895;DHT22;57172;52.034;5.090;2023-07-28T10:22:08;25.20;84.20
69895;DHT22;57172;52.034;5.090;2023-07-28T10:24:58;25.00;85.70
69895;DHT22;57172;52.034;5.090;2023-07-28T10:27:45;24.80;84.50
69895;DHT22;57172;52.034;5.090;2023-07-28T10:30:14;24.60;86.70
69895;DHT22;57172;52.034;5.090;2023-07-28T10:32:43;24.60;87.70
69895;DHT22;57172;52.034;5.090;2023-07-28T10:37:44;24.40;87.50
69895;DHT22;57172;52.034;5.090;2023-07-28T10:42:49;24.40;88.80
69895;DHT22;57172;52.034;5.090;2023-07-28T10:45:16;24.50;88.70
69895;DHT22;57172;52.034;5.090;2023-07-28T10:47:44;24.40;88.60
69895;DHT22;57172;52.034;5.090;2023-07-28T10:50:11;24.40;89.30
69895;DHT22;57172;52.034;5.090;2023-07-28T10:52:43;24.50;89.20
69895;DHT22;57172;52.034;5.090;2023-07-28T10:55:18;24.50;89.10
69895;DHT22;57172;52.034;5.090;2023-07-28T10:57:46;24.60;88.50
69895;DHT22;57172;52.034;5.090;2023-07-28T11:00:16;24.60;88.80
69895;DHT22;57172;52.034;5.090;2023-07-28T11:02:44;24.70;88.00
69895;DHT22;57172;52.034;5.090;2023-07-28T11:05:18;24.80;88.80
69895;DHT22;57172;52.034;5.090;2023-07-28T11:07:48;24.80;88.10
69895;DHT22;57172;52.034;5.090;2023-07-28T11:10:16;24.90;90.00
69895;DHT22;57172;52.034;5.090;2023-07-28T11:12:45;25.20;88.90
69895;DHT22;57172;52.034;5.090;2023-07-28T11:15:13;25.40;87.60
69895;DHT22;57172;52.034;5.090;2023-07-28T11:17:43;25.40;86.80
69895;DHT22;57172;52.034;5.090;2023-07-28T11:20:23;25.40;86.50
69895;DHT22;57172;52.034;5.090;2023-07-28T11:22:55;25.40;85.70
69895;DHT22;57172;52.034;5.090;2023-07-28T11:25:24;25.40;85.50
69895;DHT22;57172;52.034;5.090;2023-07-28T11:27:52;25.40;87.80
69895;DHT22;57172;52.034;5.090;2023-07-28T11:30:19;25.50;87.90
69895;DHT22;57172;52.034;5.090;2023-07-28T11:32:48;25.50;86.00
69895;DHT22;57172;52.034;5.090;2023-07-28T11:35:17;25.50;87.70
69895;DHT22;57172;52.034;5.090;2023-07-28T11:37:47;25.60;86.80
69895;DHT22;57172;52.034;5.090;2023-07-28T11:40:16;25.70;85.20
69895;DHT22;57172;52.034;5.090;2023-07-28T11:42:49;25.70;87.80
69895;DHT22;57172;52.034;5.090;2023-07-28T11:45:17;26.10;93.00
69895;DHT22;57172;52.034;5.090;2023-07-28T11:48:04;26.30;86.90
69895;DHT22;57172;52.034;5.090;2023-07-28T11:50:39;26.40;84.50
69895;DHT22;57172;52.034;5.090;2023-07-28T11:53:07;26.30;83.20
69895;DHT22;57172;52.034;5.090;2023-07-28T11:55:36;26.10;82.60
69895;DHT22;57172;52.034;5.090;2023-07-28T11:58:05;26.00;83.90
69895;DHT22;57172;52.034;5.090;2023-07-28T12:00:36;26.00;83.70
69895;DHT22;57172;52.034;5.090;2023-07-28T12:03:13;26.10;86.70
69895;DHT22;57172;52.034;5.090;2023-07-28T12:05:58;26.30;85.80
69895;DHT22;57172;52.034;5.090;2023-07-28T12:08:39;26.70;85.90
69895;DHT22;57172;52.034;5.090;2023-07-28T12:11:14;27.00;89.40
69895;DHT22;57172;52.034;5.090;2023-07-28T12:13:50;27.60;86.90
69895;DHT22;57172;52.034;5.090;2023-07-28T12:16:47;27.70;83.70
69895;DHT22;57172;52.034;5.090;2023-07-28T12:19:17;27.50;80.40
69895;DHT22;57172;52.034;5.090;2023-07-28T12:21:44;27.30;81.10
69895;DHT22;57172;52.034;5.090;2023-07-28T12:24:11;27.10;81.90
69895;DHT22;57172;52.034;5.090;2023-07-28T12:26:38;27.10;82.90
69895;DHT22;57172;52.034;5.090;2023-07-28T12:29:06;27.10;83.50
69895;DHT22;57172;52.034;5.090;2023-07-28T12:31:38;27.30;86.00
69895;DHT22;57172;52.034;5.090;2023-07-28T12:34:08;27.60;84.70
69895;DHT22;57172;52.034;5.090;2023-07-28T12:36:35;27.70;85.50
69895;DHT22;57172;52.034;5.090;2023-07-28T12:39:05;28.00;86.60
69895;DHT22;57172;52.034;5.090;2023-07-28T12:41:35;28.10;82.00
69895;DHT22;57172;52.034;5.090;2023-07-28T12:44:05;27.90;80.80
69895;DHT22;57172;52.034;5.090;2023-07-28T12:46:32;27.80;79.50
69895;DHT22;57172;52.034;5.090;2023-07-28T12:48:59;27.50;78.70
69895;DHT22;57172;52.034;5.090;2023-07-28T12:51:26;27.40;81.70
69895;DHT22;57172;52.034;5.090;2023-07-28T12:53:56;27.60;81.10
69895;DHT22;57172;52.034;5.090;2023-07-28T12:56:23;27.60;81.20
69895;DHT22;57172;52.034;5.090;2023-07-28T12:58:53;27.70;82.90
69895;DHT22;57172;52.034;5.090;2023-07-28T13:01:22;27.90;84.40
69895;DHT22;57172;52.034;5.090;2023-07-28T13:03:49;28.10;82.60
69895;DHT22;57172;52.034;5.090;2023-07-28T13:06:16;28.10;80.40
69895;DHT22;57172;52.034;5.090;2023-07-28T13:08:43;28.00;82.50
69895;DHT22;57172;52.034;5.090;2023-07-28T13:11:13;28.20;82.00
69895;DHT22;57172;52.034;5.090;2023-07-28T13:13:44;28.40;81.60
69895;DHT22;57172;52.034;5.090;2023-07-28T13:16:10;28.50;80.60
69895;DHT22;57172;52.034;5.090;2023-07-28T13:18:39;28.50;78.00
69895;DHT22;57172;52.034;5.090;2023-07-28T13:21:06;28.30;78.00
69895;DHT22;57172;52.034;5.090;2023-07-28T13:23:33;28.10;78.90
69895;DHT22;57172;52.034;5.090;2023-07-28T13:26:00;28.00;78.80
69895;DHT22;57172;52.034;5.090;2023-07-28T13:28:27;28.10;84.00
69895;DHT22;57172;52.034;5.090;2023-07-28T13:30:54;28.30;84.50
69895;DHT22;57172;52.034;5.090;2023-07-28T13:33:21;28.60;83.20
69895;DHT22;57172;52.034;5.090;2023-07-28T13:35:48;28.70;81.60
69895;DHT22;57172;52.034;5.090;2023-07-28T13:38:15;28.90;83.40
69895;DHT22;57172;52.034;5.090;2023-07-28T13:40:42;29.00;81.30
69895;DHT22;57172;52.034;5.090;2023-07-28T13:43:09;29.00;79.70
69895;DHT22;57172;52.034;5.090;2023-07-28T13:45:43;29.00;81.20
69895;DHT22;57172;52.034;5.090;2023-07-28T13:48:10;29.00;79.40
69895;DHT22;57172;52.034;5.090;2023-07-28T13:50:51;28.90;78.50
69895;DHT22;57172;52.034;5.090;2023-07-28T13:53:21;28.60;79.60
69895;DHT22;57172;52.034;5.090;2023-07-28T13:55:51;28.40;79.90
69895;DHT22;57172;52.034;5.090;2023-07-28T13:58:21;28.60;81.80
69895;DHT22;57172;52.034;5.090;2023-07-28T14:00:48;28.70;81.70
69895;DHT22;57172;52.034;5.090;2023-07-28T14:03:15;28.70;79.70
69895;DHT22;57172;52.034;5.090;2023-07-28T14:05:44;28.70;80.40
69895;DHT22;57172;52.034;5.090;2023-07-28T14:08:11;28.70;77.70
69895;DHT22;57172;52.034;5.090;2023-07-28T14:10:38;28.50;77.90
69895;DHT22;57172;52.034;5.090;2023-07-28T14:13:05;28.40;77.00
69895;DHT22;57172;52.034;5.090;2023-07-28T14:15:32;28.10;75.70
69895;DHT22;57172;52.034;5.090;2023-07-28T14:18:00;27.70;74.80
69895;DHT22;57172;52.034;5.090;2023-07-28T14:20:27;27.20;75.80
69895;DHT22;57172;52.034;5.090;2023-07-28T14:22:54;26.80;76.20
69895;DHT22;57172;52.034;5.090;2023-07-28T14:25:21;26.60;77.90
69895;DHT22;57172;52.034;5.090;2023-07-28T14:27:48;26.30;78.70
69895;DHT22;57172;52.034;5.090;2023-07-28T14:30:15;26.30;81.50
69895;DHT22;57172;52.034;5.090;2023-07-28T14:32:42;26.50;82.30
69895;DHT22;57172;52.034;5.090;2023-07-28T14:35:09;27.00;85.80
69895;DHT22;57172;52.034;5.090;2023-07-28T14:37:36;27.20;79.10
69895;DHT22;57172;52.034;5.090;2023-07-28T14:40:03;27.20;80.00
69895;DHT22;57172;52.034;5.090;2023-07-28T14:42:30;27.00;77.80
69895;DHT22;57172;52.034;5.090;2023-07-28T14:44:57;26.80;76.90
69895;DHT22;57172;52.034;5.090;2023-07-28T14:47:24;26.50;78.00
69895;DHT22;57172;52.034;5.090;2023-07-28T14:49:51;26.20;78.20
69895;DHT22;57172;52.034;5.090;2023-07-28T14:52:18;26.00;79.10
69895;DHT22;57172;52.034;5.090;2023-07-28T14:54:45;25.90;79.30
69895;DHT22;57172;52.034;5.090;2023-07-28T14:57:12;25.70;80.10
69895;DHT22;57172;52.034;5.090;2023-07-28T15:00:00;25.70;81.50
69895;DHT22;57172;52.034;5.090;2023-07-28T15:02:27;25.70;82.10
69895;DHT22;57172;52.034;5.090;2023-07-28T15:04:54;25.80;81.20
69895;DHT22;57172;52.034;5.090;2023-07-28T15:07:21;25.80;81.40
69895;DHT22;57172;52.034;5.090;2023-07-28T15:09:49;25.80;81.20
69895;DHT22;57172;52.034;5.090;2023-07-28T15:12:16;25.80;80.40
69895;DHT22;57172;52.034;5.090;2023-07-28T15:14:43;25.70;81.20
69895;DHT22;57172;52.034;5.090;2023-07-28T15:17:10;25.60;79.50
69895;DHT22;57172;52.034;5.090;2023-07-28T15:19:37;25.50;80.80
69895;DHT22;57172;52.034;5.090;2023-07-28T15:22:04;25.50;81.20
69895;DHT22;57172;52.034;5.090;2023-07-28T15:24:31;25.50;80.80
69895;DHT22;57172;52.034;5.090;2023-07-28T15:26:58;25.50;82.00
69895;DHT22;57172;52.034;5.090;2023-07-28T15:29:25;25.60;81.10
69895;DHT22;57172;52.034;5.090;2023-07-28T15:31:52;25.60;80.20
69895;DHT22;57172;52.034;5.090;2023-07-28T15:34:20;25.50;82.00
69895;DHT22;57172;52.034;5.090;2023-07-28T15:36:48;25.60;82.50
69895;DHT22;57172;52.034;5.090;2023-07-28T15:39:15;25.60;83.40
69895;DHT22;57172;52.034;5.090;2023-07-28T15:41:42;25.70;82.20
69895;DHT22;57172;52.034;5.090;2023-07-28T15:44:09;25.50;79.20
69895;DHT22;57172;52.034;5.090;2023-07-28T15:46:37;25.30;79.20
69895;DHT22;57172;52.034;5.090;2023-07-28T15:49:04;25.00;79.10